Main page
METAR-TAF:

METAR-TAF

Airports :

Pelotas International Airport

Pelotas, Rio Grande do Sul, Brazil

latitude: 31-52S, longitude: 052-21W, elevation: 13 m

Current weather observation

The report was made 51 minutes ago, at 14:00 UTC
Wind 4 kt from the North/Northeast
Temperature 21°C
Humidity 49%
Pressure 1019 hPa
Visibility 10 km or more
no clouds below 1500 m and no cumulonimbus

METAR: SBPK 281400Z 02004KT CAVOK 21/10 Q1019

Time: 11:51 (14:51 UTC)

Forecast

The report was made 5 hours and 51 minutes ago, at 09:00 UTC
Forecast valid from 28 at 12 UTC to 29 at 12 UTC
Wind 5 kt from the West
Visibility 10 km or more
no clouds below 1500 m and no cumulonimbus
Becoming
from 28 at 13 UTC to 28 at 15 UTC
Wind 5 kt from the East

TAF: SBPK 280900Z 2812/2912 26005KT CAVOK TX22/2818Z TN11/2908Z BECMG 2813/2815 09005KT RMK PDW

Weather observations and forecasts of more than 4000 airports (METAR and TAF reports).

The available stations are represented by yellow and red dots on the map.

Hover mouse over dot to see the name of the station.

Then click to see weather observations and forecasts.

To change the map : click on the green buttons with a black cross to zoom in, on the green button with a dash to zoom out, or on the green arrows for adjacent maps.


METAR-TAF: